Yuncos, Spain
Current Conditions -  °F | °C
As of 5:00 PM on Saturday 22 Nov 2014 (Local Time) from LEGT Reporting Station
Clear Clear  
Wind Chill: 63°   Ceiling: Unl
Heat Index: 63°   Visibility: 6mi
Dew Point: 52°   Wind: 8mph
Humidity: 68%   Direction: 60°ENE
Pressure: 29.88"   Gusts: NA
Location:  40.09°N, 3.87°W
Report Text: LEGT 221600Z 06007KT CAVOK 17/11 Q1012
Loading
Personal Weather Stations






























Interactive Weather Map New forecast layout! Learn more

10-Day Weather Forecast

Advertisements
Track Severe Weather on mobile